sensor_id;sensor_type;location;lat;lon;timestamp;pressure;altitude;pressure_sealevel;temperature;humidity
78625;BME280;67944;0.000;0.000;2023-07-08T00:00:28;100686.50;;;28.24;28.20
78625;BME280;67944;0.000;0.000;2023-07-08T00:02:53;100691.25;;;28.22;28.71
78625;BME280;67944;0.000;0.000;2023-07-08T00:05:21;100686.13;;;28.20;28.41
78625;BME280;67944;0.000;0.000;2023-07-08T00:07:47;100671.06;;;28.19;28.34
78625;BME280;67944;0.000;0.000;2023-07-08T00:10:19;100672.09;;;28.18;28.46
78625;BME280;67944;0.000;0.000;2023-07-08T00:12:48;100672.09;;;28.18;28.31
78625;BME280;67944;0.000;0.000;2023-07-08T00:15:15;100663.47;;;28.16;28.45
78625;BME280;67944;0.000;0.000;2023-07-08T00:17:42;100658.59;;;28.13;28.25
78625;BME280;67944;0.000;0.000;2023-07-08T00:20:17;100658.34;;;28.15;28.34
78625;BME280;67944;0.000;0.000;2023-07-08T00:22:43;100662.09;;;28.14;28.49
78625;BME280;67944;0.000;0.000;2023-07-08T00:25:13;100655.31;;;28.11;28.41
78625;BME280;67944;0.000;0.000;2023-07-08T00:27:40;100659.63;;;28.12;28.61
78625;BME280;67944;0.000;0.000;2023-07-08T00:32:44;100648.56;;;28.09;28.70
78625;BME280;67944;0.000;0.000;2023-07-08T00:35:10;100645.88;;;28.09;28.63
78625;BME280;67944;0.000;0.000;2023-07-08T00:37:36;100648.78;;;28.07;28.69
78625;BME280;67944;0.000;0.000;2023-07-08T00:40:13;100649.81;;;28.06;28.58
78625;BME280;67944;0.000;0.000;2023-07-08T00:42:40;100645.50;;;28.05;28.66
78625;BME280;67944;0.000;0.000;2023-07-08T00:47:43;100654.78;;;28.03;28.65
78625;BME280;67944;0.000;0.000;2023-07-08T00:50:09;100655.03;;;28.01;28.73
78625;BME280;67944;0.000;0.000;2023-07-08T00:52:36;100649.66;;;28.01;28.58
78625;BME280;67944;0.000;0.000;2023-07-08T00:55:06;100664.09;;;28.00;28.58
78625;BME280;67944;0.000;0.000;2023-07-08T00:57:39;100662.47;;;27.99;28.90
78625;BME280;67944;0.000;0.000;2023-07-08T01:00:11;100666.41;;;27.96;28.63
78625;BME280;67944;0.000;0.000;2023-07-08T01:02:54;100665.56;;;27.96;28.68
78625;BME280;67944;0.000;0.000;2023-07-08T01:05:25;100670.34;;;27.94;28.74
78625;BME280;67944;0.000;0.000;2023-07-08T01:07:58;100677.53;;;27.93;28.67
78625;BME280;67944;0.000;0.000;2023-07-08T01:10:33;100684.78;;;27.93;29.05
78625;BME280;67944;0.000;0.000;2023-07-08T01:13:05;100681.53;;;27.91;28.78
78625;BME280;67944;0.000;0.000;2023-07-08T01:15:42;100679.88;;;27.90;28.70
78625;BME280;67944;0.000;0.000;2023-07-08T01:18:12;100683.59;;;27.89;29.39
78625;BME280;67944;0.000;0.000;2023-07-08T01:20:42;100683.00;;;27.87;28.99
78625;BME280;67944;0.000;0.000;2023-07-08T01:23:10;100687.53;;;27.86;28.89
78625;BME280;67944;0.000;0.000;2023-07-08T01:25:36;100689.41;;;27.86;28.93
78625;BME280;67944;0.000;0.000;2023-07-08T01:28:03;100676.22;;;27.84;28.89
78625;BME280;67944;0.000;0.000;2023-07-08T01:30:29;100677.28;;;27.83;29.08
78625;BME280;67944;0.000;0.000;2023-07-08T01:33:02;100685.53;;;27.82;28.84
78625;BME280;67944;0.000;0.000;2023-07-08T01:35:29;100678.31;;;27.82;28.89
78625;BME280;67944;0.000;0.000;2023-07-08T01:37:59;100675.84;;;27.81;29.03
78625;BME280;67944;0.000;0.000;2023-07-08T01:40:35;100672.56;;;27.79;29.26
78625;BME280;67944;0.000;0.000;2023-07-08T01:43:02;100666.41;;;27.78;28.96
78625;BME280;67944;0.000;0.000;2023-07-08T01:45:36;100666.63;;;27.77;29.39
78625;BME280;67944;0.000;0.000;2023-07-08T01:48:07;100662.31;;;27.76;29.21
78625;BME280;67944;0.000;0.000;2023-07-08T01:50:37;100663.34;;;27.75;29.36
78625;BME280;67944;0.000;0.000;2023-07-08T01:53:11;100663.56;;;27.73;29.40
78625;BME280;67944;0.000;0.000;2023-07-08T01:55:37;100661.94;;;27.72;29.09
78625;BME280;67944;0.000;0.000;2023-07-08T01:58:02;100667.53;;;27.71;29.18
78625;BME280;67944;0.000;0.000;2023-07-08T02:00:28;100664.03;;;27.70;29.04
78625;BME280;67944;0.000;0.000;2023-07-08T02:02:53;100665.09;;;27.69;29.40
78625;BME280;67944;0.000;0.000;2023-07-08T02:05:19;100665.31;;;27.68;29.48
78625;BME280;67944;0.000;0.000;2023-07-08T02:07:44;100655.63;;;27.67;29.21
78625;BME280;67944;0.000;0.000;2023-07-08T02:10:10;100656.69;;;27.66;29.57
78625;BME280;67944;0.000;0.000;2023-07-08T02:12:35;100648.88;;;27.64;29.48
78625;BME280;67944;0.000;0.000;2023-07-08T02:15:01;100642.69;;;27.63;29.24
78625;BME280;67944;0.000;0.000;2023-07-08T02:17:27;100647.44;;;27.61;29.54
78625;BME280;67944;0.000;0.000;2023-07-08T02:19:56;100646.63;;;27.61;29.15
78625;BME280;67944;0.000;0.000;2023-07-08T02:22:21;100640.47;;;27.60;29.67
78625;BME280;67944;0.000;0.000;2023-07-08T02:24:47;100643.59;;;27.57;29.66
78625;BME280;67944;0.000;0.000;2023-07-08T02:27:13;100643.59;;;27.57;29.49
78625;BME280;67944;0.000;0.000;2023-07-08T02:29:39;100642.13;;;27.55;29.48
78625;BME280;67944;0.000;0.000;2023-07-08T02:32:05;100634.09;;;27.55;29.46
78625;BME280;67944;0.000;0.000;2023-07-08T02:34:30;100633.28;;;27.54;29.26
78625;BME280;67944;0.000;0.000;2023-07-08T02:36:56;100636.19;;;27.53;29.41
78625;BME280;67944;0.000;0.000;2023-07-08T02:39:22;100643.38;;;27.52;29.46
78625;BME280;67944;0.000;0.000;2023-07-08T02:41:47;100637.44;;;27.50;29.54
78625;BME280;67944;0.000;0.000;2023-07-08T02:44:13;100643.84;;;27.49;29.79
78625;BME280;67944;0.000;0.000;2023-07-08T02:46:39;100649.44;;;27.48;29.97
78625;BME280;67944;0.000;0.000;2023-07-08T02:49:04;100645.72;;;27.49;29.76
78625;BME280;67944;0.000;0.000;2023-07-08T02:51:31;100637.09;;;27.47;29.73
78625;BME280;67944;0.000;0.000;2023-07-08T02:53:57;100649.66;;;27.46;29.72
78625;BME280;67944;0.000;0.000;2023-07-08T02:56:22;100650.09;;;27.43;29.73
78625;BME280;67944;0.000;0.000;2023-07-08T02:58:48;100642.88;;;27.44;29.51
78625;BME280;67944;0.000;0.000;2023-07-08T03:01:15;100651.94;;;27.43;29.99
78625;BME280;67944;0.000;0.000;2023-07-08T03:03:44;100650.31;;;27.42;29.57
78625;BME280;67944;0.000;0.000;2023-07-08T03:06:10;100646.81;;;27.41;29.59
78625;BME280;67944;0.000;0.000;2023-07-08T03:08:36;100662.25;;;27.39;29.89
78625;BME280;67944;0.000;0.000;2023-07-08T03:11:04;100674.00;;;27.38;29.88
78625;BME280;67944;0.000;0.000;2023-07-08T03:13:30;100670.50;;;27.38;29.70
78625;BME280;67944;0.000;0.000;2023-07-08T03:15:58;100678.75;;;27.36;29.79
78625;BME280;67944;0.000;0.000;2023-07-08T03:18:25;100685.13;;;27.35;29.40
78625;BME280;67944;0.000;0.000;2023-07-08T03:20:52;100687.00;;;27.35;29.84
78625;BME280;67944;0.000;0.000;2023-07-08T03:23:17;100679.19;;;27.33;29.56
78625;BME280;67944;0.000;0.000;2023-07-08T03:25:43;100683.72;;;27.33;30.10
78625;BME280;67944;0.000;0.000;2023-07-08T03:28:08;100681.47;;;27.29;29.91
78625;BME280;67944;0.000;0.000;2023-07-08T03:30:44;100686.00;;;27.29;29.83
78625;BME280;67944;0.000;0.000;2023-07-08T03:33:11;100685.19;;;27.28;30.04
78625;BME280;67944;0.000;0.000;2023-07-08T03:35:37;100679.25;;;27.26;30.12
78625;BME280;67944;0.000;0.000;2023-07-08T03:38:06;100682.97;;;27.25;29.65
78625;BME280;67944;0.000;0.000;2023-07-08T03:40:31;100682.16;;;27.25;29.85
78625;BME280;67944;0.000;0.000;2023-07-08T03:42:57;100684.22;;;27.23;30.35
78625;BME280;67944;0.000;0.000;2023-07-08T03:45:22;100696.56;;;27.24;29.93
78625;BME280;67944;0.000;0.000;2023-07-08T03:47:48;100694.91;;;27.23;29.79
78625;BME280;67944;0.000;0.000;2023-07-08T03:50:20;100695.13;;;27.21;29.88
78625;BME280;67944;0.000;0.000;2023-07-08T03:52:47;100696.16;;;27.20;30.22
78625;BME280;67944;0.000;0.000;2023-07-08T03:55:13;100689.19;;;27.19;30.27
78625;BME280;67944;0.000;0.000;2023-07-08T03:57:39;100697.22;;;27.19;30.25
78625;BME280;67944;0.000;0.000;2023-07-08T04:00:05;100686.72;;;27.18;30.44
78625;BME280;67944;0.000;0.000;2023-07-08T04:02:35;100685.09;;;27.17;30.08
78625;BME280;67944;0.000;0.000;2023-07-08T04:05:01;100677.28;;;27.15;30.38
78625;BME280;67944;0.000;0.000;2023-07-08T04:07:27;100679.97;;;27.15;30.47
78625;BME280;67944;0.000;0.000;2023-07-08T04:09:52;100686.34;;;27.14;30.46
78625;BME280;67944;0.000;0.000;2023-07-08T04:12:18;100674.81;;;27.14;30.22
78625;BME280;67944;0.000;0.000;2023-07-08T04:14:43;100668.66;;;27.13;30.18
78625;BME280;67944;0.000;0.000;2023-07-08T04:17:10;100675.84;;;27.13;30.59
78625;BME280;67944;0.000;0.000;2023-07-08T04:19:36;100671.56;;;27.12;30.34
78625;BME280;67944;0.000;0.000;2023-07-08T04:22:05;100665.97;;;27.13;30.04
78625;BME280;67944;0.000;0.000;2023-07-08T04:24:31;100670.28;;;27.14;30.38
78625;BME280;67944;0.000;0.000;2023-07-08T04:26:58;100666.59;;;27.15;30.04
78625;BME280;67944;0.000;0.000;2023-07-08T04:29:24;100665.78;;;27.15;30.23
78625;BME280;67944;0.000;0.000;2023-07-08T04:31:49;100660.41;;;27.15;30.37
78625;BME280;67944;0.000;0.000;2023-07-08T04:34:16;100666.81;;;27.14;30.34
78625;BME280;67944;0.000;0.000;2023-07-08T04:36:43;100661.66;;;27.12;30.36
78625;BME280;67944;0.000;0.000;2023-07-08T04:39:10;100665.38;;;27.11;30.41
78625;BME280;67944;0.000;0.000;2023-07-08T04:41:40;100675.25;;;27.11;30.40
78625;BME280;67944;0.000;0.000;2023-07-08T04:44:10;100678.97;;;27.10;30.29
78625;BME280;67944;0.000;0.000;2023-07-08T04:49:08;100681.84;;;27.08;30.63
78625;BME280;67944;0.000;0.000;2023-07-08T04:51:38;100685.56;;;27.07;30.58
78625;BME280;67944;0.000;0.000;2023-07-08T04:54:04;100682.06;;;27.07;30.26
78625;BME280;67944;0.000;0.000;2023-07-08T04:59:04;100698.34;;;27.05;30.61
78625;BME280;67944;0.000;0.000;2023-07-08T05:01:30;100689.53;;;27.05;30.57
78625;BME280;67944;0.000;0.000;2023-07-08T05:03:56;100697.53;;;27.05;30.54
78625;BME280;67944;0.000;0.000;2023-07-08T05:06:21;100694.03;;;27.04;30.36
78625;BME280;67944;0.000;0.000;2023-07-08T05:08:47;100696.72;;;27.04;30.63
78625;BME280;67944;0.000;0.000;2023-07-08T05:11:12;100689.72;;;27.03;30.36
78625;BME280;67944;0.000;0.000;2023-07-08T05:13:38;100702.06;;;27.04;30.27
78625;BME280;67944;0.000;0.000;2023-07-08T05:16:03;100699.81;;;27.01;30.31
78625;BME280;67944;0.000;0.000;2023-07-08T05:18:29;100697.97;;;27.02;30.74
78625;BME280;67944;0.000;0.000;2023-07-08T05:20:55;100691.59;;;27.03;30.41
78625;BME280;67944;0.000;0.000;2023-07-08T05:23:21;100689.13;;;27.01;30.58
78625;BME280;67944;0.000;0.000;2023-07-08T05:25:47;100699.00;;;27.01;30.61
78625;BME280;67944;0.000;0.000;2023-07-08T05:28:13;100710.50;;;27.01;30.33
78625;BME280;67944;0.000;0.000;2023-07-08T05:30:42;100735.41;;;27.02;30.50
78625;BME280;67944;0.000;0.000;2023-07-08T05:33:08;100730.03;;;27.02;30.36
78625;BME280;67944;0.000;0.000;2023-07-08T05:35:34;100732.72;;;27.02;30.41
78625;BME280;67944;0.000;0.000;2023-07-08T05:37:59;100735.41;;;27.02;30.58
78625;BME280;67944;0.000;0.000;2023-07-08T05:40:25;100740.75;;;27.02;30.96
78625;BME280;67944;0.000;0.000;2023-07-08T05:42:50;100749.56;;;27.02;30.87
78625;BME280;67944;0.000;0.000;2023-07-08T05:45:16;100748.75;;;27.02;30.67
78625;BME280;67944;0.000;0.000;2023-07-08T05:47:41;100756.78;;;27.02;30.86
78625;BME280;67944;0.000;0.000;2023-07-08T05:50:07;100752.47;;;27.01;30.45
78625;BME280;67944;0.000;0.000;2023-07-08T05:52:33;100747.72;;;27.03;30.48
78625;BME280;67944;0.000;0.000;2023-07-08T05:54:58;100744.22;;;27.02;30.45
78625;BME280;67944;0.000;0.000;2023-07-08T05:57:24;100745.06;;;27.03;30.53
78625;BME280;67944;0.000;0.000;2023-07-08T05:59:50;100738.06;;;27.02;30.88
78625;BME280;67944;0.000;0.000;2023-07-08T06:02:16;100741.78;;;27.01;30.95
78625;BME280;67944;0.000;0.000;2023-07-08T06:04:42;100746.91;;;27.02;30.39
78625;BME280;67944;0.000;0.000;2023-07-08T06:07:07;100762.13;;;27.02;30.99
78625;BME280;67944;0.000;0.000;2023-07-08T06:09:33;100772.81;;;27.02;31.05
78625;BME280;67944;0.000;0.000;2023-07-08T06:11:59;100769.31;;;27.01;30.82
78625;BME280;67944;0.000;0.000;2023-07-08T06:14:24;100765.84;;;27.01;30.63
78625;BME280;67944;0.000;0.000;2023-07-08T06:16:50;100772.81;;;27.02;30.96
78625;BME280;67944;0.000;0.000;2023-07-08T06:19:16;100778.16;;;27.02;30.84
78625;BME280;67944;0.000;0.000;2023-07-08T06:21:42;100784.34;;;27.02;30.94
78625;BME280;67944;0.000;0.000;2023-07-08T06:24:08;100781.66;;;27.02;30.66
78625;BME280;67944;0.000;0.000;2023-07-08T06:26:34;100787.00;;;27.02;30.23
78625;BME280;67944;0.000;0.000;2023-07-08T06:28:59;100785.16;;;27.03;30.74
78625;BME280;67944;0.000;0.000;2023-07-08T06:31:25;100769.13;;;27.03;30.83
78625;BME280;67944;0.000;0.000;2023-07-08T06:33:50;100771.78;;;27.03;30.79
78625;BME280;67944;0.000;0.000;2023-07-08T06:36:16;100787.81;;;27.03;30.67
78625;BME280;67944;0.000;0.000;2023-07-08T06:38:41;100780.63;;;27.03;30.63
78625;BME280;67944;0.000;0.000;2023-07-08T06:41:07;100786.78;;;27.04;30.92
78625;BME280;67944;0.000;0.000;2023-07-08T06:43:32;100789.47;;;27.04;30.72
78625;BME280;67944;0.000;0.000;2023-07-08T06:45:58;100779.59;;;27.04;31.07
78625;BME280;67944;0.000;0.000;2023-07-08T06:48:23;100777.75;;;27.05;30.83
78625;BME280;67944;0.000;0.000;2023-07-08T06:50:50;100776.91;;;27.04;30.96
78625;BME280;67944;0.000;0.000;2023-07-08T06:53:15;100772.41;;;27.05;30.62
78625;BME280;67944;0.000;0.000;2023-07-08T06:55:44;100777.75;;;27.05;31.22
78625;BME280;67944;0.000;0.000;2023-07-08T06:58:09;100785.56;;;27.06;30.85
78625;BME280;67944;0.000;0.000;2023-07-08T07:00:34;100789.00;;;27.07;30.95
78625;BME280;67944;0.000;0.000;2023-07-08T07:03:00;100798.91;;;27.06;30.71
78625;BME280;67944;0.000;0.000;2023-07-08T07:05:26;100794.59;;;27.05;30.65
78625;BME280;67944;0.000;0.000;2023-07-08T07:07:51;100790.06;;;27.06;31.04
78625;BME280;67944;0.000;0.000;2023-07-08T07:10:18;100794.59;;;27.05;30.69
78625;BME280;67944;0.000;0.000;2023-07-08T07:12:44;100795.41;;;27.06;30.80
78625;BME280;67944;0.000;0.000;2023-07-08T07:15:09;100798.09;;;27.06;31.32
78625;BME280;67944;0.000;0.000;2023-07-08T07:17:35;100787.41;;;27.06;30.98
78625;BME280;67944;0.000;0.000;2023-07-08T07:20:02;100794.34;;;27.07;31.13
78625;BME280;67944;0.000;0.000;2023-07-08T07:22:28;100785.31;;;27.08;31.00
78625;BME280;67944;0.000;0.000;2023-07-08T07:24:54;100794.16;;;27.08;31.45
78625;BME280;67944;0.000;0.000;2023-07-08T07:27:19;100791.25;;;27.10;30.90
78625;BME280;67944;0.000;0.000;2023-07-08T07:29:48;100797.22;;;27.12;31.18
78625;BME280;67944;0.000;0.000;2023-07-08T07:32:16;100791.88;;;27.12;31.40
78625;BME280;67944;0.000;0.000;2023-07-08T07:34:42;100796.19;;;27.13;31.26
78625;BME280;67944;0.000;0.000;2023-07-08T07:37:13;100809.56;;;27.13;31.10
78625;BME280;67944;0.000;0.000;2023-07-08T07:39:40;100807.47;;;27.15;31.51
78625;BME280;67944;0.000;0.000;2023-07-08T07:42:06;100814.47;;;27.16;31.35
78625;BME280;67944;0.000;0.000;2023-07-08T07:44:32;100802.75;;;27.17;31.05
78625;BME280;67944;0.000;0.000;2023-07-08T07:46:58;100809.50;;;27.19;30.84
78625;BME280;67944;0.000;0.000;2023-07-08T07:49:23;100819.19;;;27.20;31.15
78625;BME280;67944;0.000;0.000;2023-07-08T07:51:49;100820.81;;;27.21;31.20
78625;BME280;67944;0.000;0.000;2023-07-08T07:54:15;100820.59;;;27.23;31.24
78625;BME280;67944;0.000;0.000;2023-07-08T07:56:41;100825.75;;;27.24;30.80
78625;BME280;67944;0.000;0.000;2023-07-08T07:59:06;100822.84;;;27.26;31.17
78625;BME280;67944;0.000;0.000;2023-07-08T08:01:32;100821.56;;;27.28;30.75
78625;BME280;67944;0.000;0.000;2023-07-08T08:03:57;100833.91;;;27.29;31.36
78625;BME280;67944;0.000;0.000;2023-07-08T08:06:23;100836.16;;;27.33;31.13
78625;BME280;67944;0.000;0.000;2023-07-08T08:08:49;100832.47;;;27.34;30.76
78625;BME280;67944;0.000;0.000;2023-07-08T08:11:15;100828.53;;;27.36;30.91
78625;BME280;67944;0.000;0.000;2023-07-08T08:13:41;100837.97;;;27.39;30.72
78625;BME280;67944;0.000;0.000;2023-07-08T08:16:06;100839.63;;;27.40;31.40
78625;BME280;67944;0.000;0.000;2023-07-08T08:18:32;100846.41;;;27.42;30.86
78625;BME280;67944;0.000;0.000;2023-07-08T08:20:57;100843.72;;;27.42;30.83
78625;BME280;67944;0.000;0.000;2023-07-08T08:23:23;100847.00;;;27.44;30.85
78625;BME280;67944;0.000;0.000;2023-07-08T08:25:50;100859.34;;;27.45;31.06
78625;BME280;67944;0.000;0.000;2023-07-08T08:28:15;100844.94;;;27.46;31.06
78625;BME280;67944;0.000;0.000;2023-07-08T08:30:41;100852.75;;;27.48;31.05
78625;BME280;67944;0.000;0.000;2023-07-08T08:33:06;100850.66;;;27.50;30.62
78625;BME280;67944;0.000;0.000;2023-07-08T08:35:32;100851.47;;;27.50;31.21
78625;BME280;67944;0.000;0.000;2023-07-08T08:37:57;100849.41;;;27.52;30.61
78625;BME280;67944;0.000;0.000;2023-07-08T08:40:23;100848.38;;;27.53;31.17
78625;BME280;67944;0.000;0.000;2023-07-08T08:42:59;100855.16;;;27.56;30.70
78625;BME280;67944;0.000;0.000;2023-07-08T08:45:28;100850.44;;;27.58;30.74
78625;BME280;67944;0.000;0.000;2023-07-08T08:48:03;100857.22;;;27.60;30.91
78625;BME280;67944;0.000;0.000;2023-07-08T08:53:02;100852.47;;;27.62;30.95
78625;BME280;67944;0.000;0.000;2023-07-08T08:55:29;100856.56;;;27.65;30.66
78625;BME280;67944;0.000;0.000;2023-07-08T09:00:55;100847.06;;;27.69;30.82
78625;BME280;67944;0.000;0.000;2023-07-08T09:03:37;100838.00;;;27.70;30.68
78625;BME280;67944;0.000;0.000;2023-07-08T09:06:21;100845.78;;;27.72;30.47
78625;BME280;67944;0.000;0.000;2023-07-08T09:08:50;100844.53;;;27.74;30.76
78625;BME280;67944;0.000;0.000;2023-07-08T09:14:24;100838.75;;;27.77;30.48
78625;BME280;67944;0.000;0.000;2023-07-08T09:19:47;100838.09;;;27.82;30.69
78625;BME280;67944;0.000;0.000;2023-07-08T09:22:30;100836.03;;;27.84;30.46
78625;BME280;67944;0.000;0.000;2023-07-08T09:25:11;100825.09;;;27.85;30.50
78625;BME280;67944;0.000;0.000;2023-07-08T09:27:46;100820.13;;;27.89;30.46
78625;BME280;67944;0.000;0.000;2023-07-08T09:30:17;100818.88;;;27.91;30.51
78625;BME280;67944;0.000;0.000;2023-07-08T09:32:42;100830.97;;;27.94;30.38
78625;BME280;67944;0.000;0.000;2023-07-08T09:35:11;100824.34;;;27.96;30.42
78625;BME280;67944;0.000;0.000;2023-07-08T09:37:45;100827.63;;;27.98;30.55
78625;BME280;67944;0.000;0.000;2023-07-08T09:40:21;100827.19;;;28.02;30.57
78625;BME280;67944;0.000;0.000;2023-07-08T09:42:52;100831.31;;;28.04;30.46
78625;BME280;67944;0.000;0.000;2023-07-08T09:45:23;100824.69;;;28.07;30.56
78625;BME280;67944;0.000;0.000;2023-07-08T09:47:55;100818.91;;;28.10;30.37
78625;BME280;67944;0.000;0.000;2023-07-08T09:50:25;100820.53;;;28.11;30.20
78625;BME280;67944;0.000;0.000;2023-07-08T09:52:58;100820.09;;;28.14;30.15
78625;BME280;67944;0.000;0.000;2023-07-08T09:55:27;100821.47;;;28.16;30.09
78625;BME280;67944;0.000;0.000;2023-07-08T09:57:57;100816.72;;;28.18;30.22
78625;BME280;67944;0.000;0.000;2023-07-08T10:00:34;100821.69;;;28.21;30.05
78625;BME280;67944;0.000;0.000;2023-07-08T10:03:11;100809.91;;;28.22;30.32
78625;BME280;67944;0.000;0.000;2023-07-08T10:05:42;100822.66;;;28.27;30.13
78625;BME280;67944;0.000;0.000;2023-07-08T10:08:19;100803.69;;;28.28;30.44
78625;BME280;67944;0.000;0.000;2023-07-08T10:10:47;100813.13;;;28.31;29.75
78625;BME280;67944;0.000;0.000;2023-07-08T10:13:17;100807.56;;;28.33;30.26
78625;BME280;67944;0.000;0.000;2023-07-08T10:15:56;100802.56;;;28.36;29.96
78625;BME280;67944;0.000;0.000;2023-07-08T10:18:28;100801.50;;;28.37;29.70
78625;BME280;67944;0.000;0.000;2023-07-08T10:21:08;100797.56;;;28.40;29.88
78625;BME280;67944;0.000;0.000;2023-07-08T10:23:48;100789.09;;;28.43;29.91
78625;BME280;67944;0.000;0.000;2023-07-08T10:26:26;100784.31;;;28.45;30.02
78625;BME280;67944;0.000;0.000;2023-07-08T10:29:24;100791.09;;;28.47;29.86
78625;BME280;67944;0.000;0.000;2023-07-08T10:32:12;100786.34;;;28.49;29.81
78625;BME280;67944;0.000;0.000;2023-07-08T10:34:49;100792.06;;;28.53;30.11
78625;BME280;67944;0.000;0.000;2023-07-08T10:37:31;100795.34;;;28.55;30.12
78625;BME280;67944;0.000;0.000;2023-07-08T10:45:39;100793.97;;;28.64;29.99
78625;BME280;67944;0.000;0.000;2023-07-08T10:48:29;100787.56;;;28.65;29.87
78625;BME280;67944;0.000;0.000;2023-07-08T10:51:16;100786.09;;;28.69;29.85
78625;BME280;67944;0.000;0.000;2023-07-08T10:54:28;100790.41;;;28.70;30.25
78625;BME280;67944;0.000;0.000;2023-07-08T11:05:16;100779.13;;;28.80;29.58
78625;BME280;67944;0.000;0.000;2023-07-08T11:08:08;100779.75;;;28.82;29.93
78625;BME280;67944;0.000;0.000;2023-07-08T11:10:49;100779.28;;;28.85;29.56
78625;BME280;67944;0.000;0.000;2023-07-08T11:13:26;100778.03;;;28.87;29.85
78625;BME280;67944;0.000;0.000;2023-07-08T11:16:01;100780.25;;;28.90;29.71
78625;BME280;67944;0.000;0.000;2023-07-08T11:18:41;100775.47;;;28.92;29.69
78625;BME280;67944;0.000;0.000;2023-07-08T11:24:11;100778.31;;;28.97;29.33
78625;BME280;67944;0.000;0.000;2023-07-08T11:26:50;100783.22;;;29.01;29.25
78625;BME280;67944;0.000;0.000;2023-07-08T11:29:23;100773.31;;;29.01;30.05
78625;BME280;67944;0.000;0.000;2023-07-08T11:31:52;100772.00;;;29.04;29.24
78625;BME280;67944;0.000;0.000;2023-07-08T11:34:20;100762.91;;;29.05;29.42
78625;BME280;67944;0.000;0.000;2023-07-08T11:36:50;100761.63;;;29.07;29.74
78625;BME280;67944;0.000;0.000;2023-07-08T11:39:28;100760.38;;;29.10;29.54
78625;BME280;67944;0.000;0.000;2023-07-08T11:42:05;100762.81;;;29.11;29.27
78625;BME280;67944;0.000;0.000;2023-07-08T11:44:43;100762.59;;;29.13;29.46
78625;BME280;67944;0.000;0.000;2023-07-08T11:47:17;100762.13;;;29.16;29.38
78625;BME280;67944;0.000;0.000;2023-07-08T11:49:46;100750.38;;;29.17;29.63
78625;BME280;67944;0.000;0.000;2023-07-08T11:52:17;100754.47;;;29.19;29.36
78625;BME280;67944;0.000;0.000;2023-07-08T11:54:48;100757.72;;;29.21;29.16
78625;BME280;67944;0.000;0.000;2023-07-08T11:57:23;100757.25;;;29.24;29.41
78625;BME280;67944;0.000;0.000;2023-07-08T12:00:12;100750.59;;;29.27;29.30
78625;BME280;67944;0.000;0.000;2023-07-08T12:02:55;100750.16;;;29.30;29.20
78625;BME280;67944;0.000;0.000;2023-07-08T12:07:57;100742.44;;;29.33;29.63
78625;BME280;67944;0.000;0.000;2023-07-08T12:10:33;100738.50;;;29.36;29.41
78625;BME280;67944;0.000;0.000;2023-07-08T12:13:00;100741.75;;;29.38;29.22
78625;BME280;67944;0.000;0.000;2023-07-08T12:15:31;100738.03;;;29.39;28.98
78625;BME280;67944;0.000;0.000;2023-07-08T12:20:37;100747.84;;;29.45;29.40
78625;BME280;67944;0.000;0.000;2023-07-08T12:23:12;100742.25;;;29.47;29.15
78625;BME280;67944;0.000;0.000;2023-07-08T12:25:37;100739.34;;;29.48;29.02
78625;BME280;67944;0.000;0.000;2023-07-08T12:28:03;100733.75;;;29.50;28.97
78625;BME280;67944;0.000;0.000;2023-07-08T12:30:31;100734.31;;;29.52;28.87
78625;BME280;67944;0.000;0.000;2023-07-08T12:32:58;100725.22;;;29.53;28.96
78625;BME280;67944;0.000;0.000;2023-07-08T12:37:52;100729.91;;;29.57;28.61
78625;BME280;67944;0.000;0.000;2023-07-08T12:40:19;100740.19;;;29.60;28.91
78625;BME280;67944;0.000;0.000;2023-07-08T12:42:46;100729.19;;;29.62;29.16
78625;BME280;67944;0.000;0.000;2023-07-08T12:45:14;100734.34;;;29.63;29.06
78625;BME280;67944;0.000;0.000;2023-07-08T12:47:40;100729.56;;;29.65;29.42
78625;BME280;67944;0.000;0.000;2023-07-08T12:50:08;100735.47;;;29.67;29.18
78625;BME280;67944;0.000;0.000;2023-07-08T12:52:34;100727.19;;;29.69;28.86
78625;BME280;67944;0.000;0.000;2023-07-08T12:55:00;100724.28;;;29.71;29.00
78625;BME280;67944;0.000;0.000;2023-07-08T12:57:26;100732.09;;;29.72;28.83
78625;BME280;67944;0.000;0.000;2023-07-08T12:59:51;100730.00;;;29.74;29.02
78625;BME280;67944;0.000;0.000;2023-07-08T13:02:20;100725.44;;;29.75;29.17
78625;BME280;67944;0.000;0.000;2023-07-08T13:04:56;100723.13;;;29.78;28.69
78625;BME280;67944;0.000;0.000;2023-07-08T13:07:36;100724.75;;;29.79;29.08
78625;BME280;67944;0.000;0.000;2023-07-08T13:10:16;100725.56;;;29.80;28.75
78625;BME280;67944;0.000;0.000;2023-07-08T13:12:42;100726.97;;;29.82;28.75
78625;BME280;67944;0.000;0.000;2023-07-08T13:15:18;100724.06;;;29.84;28.65
78625;BME280;67944;0.000;0.000;2023-07-08T13:17:46;100728.13;;;29.86;28.90
78625;BME280;67944;0.000;0.000;2023-07-08T13:20:14;100724.41;;;29.87;28.61
78625;BME280;67944;0.000;0.000;2023-07-08T13:22:42;100716.09;;;29.89;29.13
78625;BME280;67944;0.000;0.000;2023-07-08T13:25:15;100708.63;;;29.91;28.90
78625;BME280;67944;0.000;0.000;2023-07-08T13:27:42;100708.38;;;29.92;29.10
78625;BME280;67944;0.000;0.000;2023-07-08T13:30:21;100708.97;;;29.94;28.74
78625;BME280;67944;0.000;0.000;2023-07-08T13:32:52;100708.72;;;29.96;28.41
78625;BME280;67944;0.000;0.000;2023-07-08T13:35:26;100703.97;;;29.98;29.21
78625;BME280;67944;0.000;0.000;2023-07-08T13:37:53;100706.41;;;29.99;29.04
78625;BME280;67944;0.000;0.000;2023-07-08T13:40:19;100706.19;;;30.01;28.84
78625;BME280;67944;0.000;0.000;2023-07-08T13:42:52;100714.00;;;30.03;28.71
78625;BME280;67944;0.000;0.000;2023-07-08T13:45:25;100708.16;;;30.06;28.69
78625;BME280;67944;0.000;0.000;2023-07-08T13:48:02;100712.72;;;30.05;29.06
78625;BME280;67944;0.000;0.000;2023-07-08T13:50:38;100711.66;;;30.06;28.88
78625;BME280;67944;0.000;0.000;2023-07-08T13:53:17;100709.56;;;30.08;28.66
78625;BME280;67944;0.000;0.000;2023-07-08T13:55:42;100700.44;;;30.09;29.03